Newport Municipal Airport
KONP : now visible

Airfield :











YOU CAN JOIN US ON...

 
LOGIN :

Register | Disclaimer

   EN    FR    IT 

 









Legend :    VFR   Marginal VFR   IFR   Intensive IFR   Very Intensive IFR
Visi :
Ceiling :
>= 8 km
>= 3000ft
5 to 8 km
1000 to 3000 ft
1500m to 5 km
500 to 1000 ft
800 to 1500m
200 to 500 ft
< 800m
< 200 ft
Symbols :   Thunderstorms  Fog  Heavy snow  Heavy precipitations  Wind > 20 kt







- Airport Elevation : 160 ft


KONP - Newport Municipal

CURRENT METAR :
  • 181135Z AUTO 00000KT 10SM SCT031 SCT044 BKN110 13/12 A2979 RMK AO2

EXPIRED METARs :
  • 181115Z AUTO 00000KT 10SM SCT016 BKN042 OVC050 13/12 A2979 RMK AO2
  • 181055Z AUTO 00000KT 5SM RA SCT016 BKN041 OVC060 13/12 A2979 RMK AO2 P0008
  • 181035Z AUTO 00000KT 5SM -RA BKN014 BKN028 OVC060 13/13 A2980 RMK AO2 P0005
  • 181015Z AUTO 19012G17KT 4SM RA SCT008 BKN016 OVC029 14/13 A2980 RMK AO2 P0003
  • 180955Z AUTO 18010KT 4SM -RA OVC008 15/15 A2978 RMK AO2 P0002
  • 180935Z AUTO 18007KT 5SM BR BKN008 OVC017 15/15 A2979 RMK AO2
  • 180915Z AUTO 20011KT 5SM BR SCT010 BKN017 OVC037 15/15 A2979 RMK AO2
  • 180855Z AUTO 20014G19KT 5SM BR SCT010 BKN017 OVC039 15/15 A2978 RMK AO2

TAF KONP
Valid from the 18 at 12:00 until the 19 at 12:00 UTC


181130Z 1812/1912 20009KT P6SM -SHRA SCT015 BKN035 OVC045
TEMPO 1812/1816 4SM SHRA BKN015 OVC035
FM181800 VRB05KT P6SM -SHRA BKN015 OVC040
FM182100 18006KT P6SM -SHRA SCT015 BKN035 OVC050
FM190000 32008KT P6SM SCT025 BKN045
FM190600 02003KT 5SM BR SCT005 BKN025
No reported NOTAMs for that airfield.



MET'MAP, your aeronautical weather chart ! - Copyright ORBIFLY December 2007 - Disclaimer

ORBIFLY MET'MAP TEAM :

Programming & Development : Alexandra Zaïnal
Concept & Development : Baudouin d'Aumeries
Co-Development & Prog : Marc-Olivier Méhu
Technical & hardware support : Manuel Goepfert

Contact : metmap@orbifly.com




SOURCES & CREDITS :

   NOAA       Earth
Advisory